Time;durP1;ratioP1;P1;durP2;ratioP2;P2;SDS_P1;SDS_P2;PMS_P1;PMS_P2;Temp;Humidity;BMP_temperature;BMP_pressure;BME280_temperature;BME280_humidity;BME280_pressure;Samples;Min_cycle;Max_cycle;Signal;HPM_P1;HPM_P2
2022/06/26 00:01:06;;;;;;;22.10;19.67;;;18.30;99.90;;;;;;4991184;28;20501;-41
2022/06/26 00:03:31;;;;;;;22.25;18.92;;;18.30;99.90;;;;;;4989962;28;20128;-42
2022/06/26 00:05:57;;;;;;;26.63;21.25;;;18.20;99.90;;;;;;4990686;28;20065;-41
2022/06/26 00:08:25;;;;;;;23.10;19.48;;;18.20;99.90;;;;;;4974734;28;20085;-41
2022/06/26 00:10:52;;;;;;;24.08;20.05;;;18.20;99.90;;;;;;4991165;28;20046;-41
2022/06/26 00:13:18;;;;;;;22.38;19.17;;;18.20;99.90;;;;;;4989888;28;20414;-41
2022/06/26 00:15:44;;;;;;;22.15;19.75;;;18.20;99.90;;;;;;4995604;28;20061;-42
2022/06/26 00:18:10;;;;;;;23.98;20.02;;;18.20;99.90;;;;;;4985916;28;20551;-41
2022/06/26 00:20:36;;;;;;;21.67;19.30;;;18.20;99.90;;;;;;5010287;28;20397;-42
2022/06/26 00:23:02;;;;;;;23.55;21.05;;;18.20;99.90;;;;;;5009623;28;20050;-42
2022/06/26 00:25:27;;;;;;;22.85;18.75;;;18.10;99.90;;;;;;5008892;28;20081;-42
2022/06/26 00:27:53;;;;;;;21.60;19.13;;;18.10;99.90;;;;;;4992128;28;20057;-41
2022/06/26 00:30:19;;;;;;;22.50;18.50;;;18.10;99.90;;;;;;5009164;28;20054;-41
2022/06/26 00:32:45;;;;;;;22.08;18.05;;;18.10;99.90;;;;;;5008153;28;20065;-41
2022/06/26 00:35:11;;;;;;;20.27;18.08;;;18.10;99.90;;;;;;5010023;28;20489;-44
2022/06/26 00:37:36;;;;;;;23.38;18.83;;;18.10;99.90;;;;;;4994455;28;20052;-41
2022/06/26 00:40:03;;;;;;;21.02;17.92;;;18.10;99.90;;;;;;5005631;28;20093;-41
2022/06/26 00:42:28;;;;;;;20.33;17.33;;;18.00;99.90;;;;;;5000780;28;20457;-41
2022/06/26 00:44:55;;;;;;;19.52;16.75;;;18.00;99.90;;;;;;5008426;28;20045;-41
2022/06/26 00:47:22;;;;;;;18.63;16.63;;;18.00;99.90;;;;;;4991009;28;20053;-41
2022/06/26 00:49:48;;;;;;;18.15;16.27;;;18.00;99.90;;;;;;4990470;28;20065;-44
2022/06/26 00:52:15;;;;;;;22.88;17.35;;;18.00;99.90;;;;;;4989352;28;20479;-44
2022/06/26 00:54:40;;;;;;;20.98;17.52;;;18.00;99.90;;;;;;4995687;28;20529;-43
2022/06/26 00:57:06;;;;;;;19.35;17.10;;;18.00;99.90;;;;;;4993795;28;20044;-43
2022/06/26 00:59:33;;;;;;;21.58;17.20;;;18.00;99.90;;;;;;5009703;28;20533;-43
2022/06/26 01:01:58;;;;;;;21.15;16.98;;;18.00;99.90;;;;;;5009783;28;20517;-44
2022/06/26 01:04:24;;;;;;;22.15;17.00;;;18.00;99.90;;;;;;4989044;28;20061;-43
2022/06/26 01:06:51;;;;;;;21.42;15.65;;;18.10;99.90;;;;;;4987685;28;20049;-43
2022/06/26 01:09:17;;;;;;;24.08;16.98;;;18.10;99.90;;;;;;5008504;28;20073;-43
2022/06/26 01:11:43;;;;;;;22.95;18.13;;;17.90;99.90;;;;;;5010026;28;20049;-44
2022/06/26 01:14:10;;;;;;;19.95;16.75;;;17.90;99.90;;;;;;5001850;28;20085;-43
2022/06/26 01:16:37;;;;;;;22.67;17.10;;;18.00;99.90;;;;;;4983543;28;20165;-43
2022/06/26 01:19:05;;;;;;;22.10;17.25;;;18.00;99.90;;;;;;4987365;28;20062;-43
2022/06/26 01:21:32;;;;;;;25.83;16.95;;;18.00;99.90;;;;;;4989911;28;20081;-43
2022/06/26 01:23:58;;;;;;;23.40;16.58;;;18.00;99.90;;;;;;4989216;28;20045;-42
2022/06/26 01:26:24;;;;;;;19.33;16.17;;;18.00;99.90;;;;;;4975991;28;20050;-41
2022/06/26 01:28:50;;;;;;;21.30;15.48;;;17.90;99.90;;;;;;4989945;28;20601;-42
2022/06/26 01:31:17;;;;;;;19.08;14.95;;;17.90;99.90;;;;;;4996285;28;20078;-41
2022/06/26 01:33:42;;;;;;;19.15;14.90;;;17.90;99.90;;;;;;5012634;28;20128;-41
2022/06/26 01:36:08;;;;;;;22.90;15.88;;;17.90;99.90;;;;;;5007325;28;20120;-42
2022/06/26 01:38:34;;;;;;;22.13;15.60;;;17.90;99.90;;;;;;5003925;28;20506;-41
2022/06/26 01:41:00;;;;;;;18.20;14.02;;;17.80;99.90;;;;;;5001111;28;20125;-41
2022/06/26 01:43:29;;;;;;;19.90;13.65;;;17.90;99.90;;;;;;5010294;28;20528;-41
2022/06/26 01:45:56;;;;;;;15.85;12.57;;;17.90;99.90;;;;;;5011786;28;20053;-41
2022/06/26 01:48:24;;;;;;;18.50;12.70;;;17.90;99.90;;;;;;4987140;28;20053;-41
2022/06/26 01:50:50;;;;;;;16.02;11.93;;;17.90;99.90;;;;;;4993303;28;20125;-42
2022/06/26 01:53:16;;;;;;;16.13;11.55;;;17.90;99.90;;;;;;4986320;28;20066;-41
2022/06/26 01:55:42;;;;;;;14.30;11.50;;;17.80;99.90;;;;;;5001397;28;20521;-41
2022/06/26 01:58:08;;;;;;;17.55;11.18;;;17.80;99.90;;;;;;4975078;28;20093;-42
2022/06/26 02:00:40;;;;;;;14.50;11.15;;;17.80;99.90;;;;;;4992761;28;20085;-42
2022/06/26 02:03:06;;;;;;;;;;;17.80;99.90;;;;;;5012654;28;20497;-41
2022/06/26 02:05:32;;;;;;;15.38;10.27;;;17.80;99.90;;;;;;5012749;28;20003;-42
2022/06/26 02:07:58;;;;;;;15.95;10.32;;;17.80;99.90;;;;;;4996587;28;20417;-41
2022/06/26 02:15:56;;;;;;;15.73;9.52;;;17.80;99.90;;;;;;5004878;28;20061;-42
2022/06/26 02:18:22;;;;;;;18.05;8.95;;;17.70;99.90;;;;;;4976800;28;20070;-42
2022/06/26 02:20:48;;;;;;;14.90;8.82;;;17.80;99.90;;;;;;4993480;28;20057;-41
2022/06/26 02:23:15;;;;;;;12.00;8.25;;;17.80;99.90;;;;;;4993988;28;20133;-41
2022/06/26 02:25:41;;;;;;;11.23;7.60;;;17.80;99.90;;;;;;5011297;28;20140;-41
2022/06/26 02:28:07;;;;;;;12.77;7.95;;;17.80;99.90;;;;;;4996247;28;20050;-41
2022/06/26 02:30:34;;;;;;;14.15;7.90;;;17.80;99.90;;;;;;4997887;28;20090;-42
2022/06/26 02:32:59;;;;;;;14.23;7.45;;;17.80;99.90;;;;;;4990767;28;20453;-41
2022/06/26 02:35:26;;;;;;;14.63;8.32;;;17.80;99.90;;;;;;5000535;28;20066;-41
2022/06/26 02:37:54;;;;;;;14.15;8.90;;;17.70;99.90;;;;;;4995385;28;20065;-41
2022/06/26 02:40:21;;;;;;;12.95;8.50;;;17.70;99.90;;;;;;5005124;28;20042;-41
2022/06/26 02:42:48;;;;;;;14.82;8.68;;;17.70;99.90;;;;;;5004683;28;20054;-41
2022/06/26 02:45:14;;;;;;;16.92;9.90;;;17.70;99.90;;;;;;4992761;28;20082;-41
2022/06/26 02:47:40;;;;;;;17.25;10.55;;;17.70;99.90;;;;;;4974989;28;20462;-41
2022/06/26 02:50:06;;;;;;;12.55;9.60;;;17.70;99.90;;;;;;4999937;28;20096;-41
2022/06/26 02:52:32;;;;;;;14.02;9.35;;;17.70;99.90;;;;;;5011145;28;20700;-41
2022/06/26 02:54:58;;;;;;;12.77;9.02;;;17.70;99.90;;;;;;5012140;28;20050;-41
2022/06/26 02:57:23;;;;;;;11.20;8.95;;;17.70;99.90;;;;;;4995646;28;20046;-41
2022/06/26 02:59:49;;;;;;;12.45;8.82;;;17.70;99.90;;;;;;5011927;28;20417;-41
2022/06/26 03:02:15;;;;;;;10.77;8.35;;;17.70;99.90;;;;;;5011265;28;20791;-41
2022/06/26 03:04:42;;;;;;;11.40;8.55;;;17.70;99.90;;;;;;5011659;28;20136;-41
2022/06/26 03:07:08;;;;;;;10.20;7.85;;;17.70;99.90;;;;;;4995231;28;20557;-42
2022/06/26 03:09:33;;;;;;;9.50;7.90;;;17.70;99.90;;;;;;5011370;28;20184;-41
2022/06/26 03:11:59;;;;;;;9.93;7.35;;;17.70;99.90;;;;;;5011595;28;20041;-41
2022/06/26 03:14:25;;;;;;;9.10;7.65;;;17.70;99.90;;;;;;5009492;28;20043;-41
2022/06/26 03:16:50;;;;;;;9.77;6.97;;;17.70;99.90;;;;;;4981392;28;20061;-41
2022/06/26 03:19:16;;;;;;;9.85;7.47;;;17.70;99.90;;;;;;4991287;28;20049;-41
2022/06/26 03:21:42;;;;;;;11.23;7.55;;;17.70;99.90;;;;;;4991920;28;20050;-41
2022/06/26 03:24:07;;;;;;;10.75;7.43;;;17.70;99.90;;;;;;4982673;28;20058;-41
2022/06/26 03:26:35;;;;;;;9.43;6.80;;;17.60;99.90;;;;;;4973510;28;20417;-41
2022/06/26 03:29:02;;;;;;;9.82;6.57;;;17.70;99.90;;;;;;4988567;28;20474;-41
2022/06/26 03:31:28;;;;;;;7.70;6.05;;;17.60;99.90;;;;;;4987740;28;20525;-41
2022/06/26 03:33:55;;;;;;;12.05;6.75;;;17.60;99.90;;;;;;4990656;28;20054;-41
2022/06/26 03:36:22;;;;;;;7.93;6.20;;;17.60;99.90;;;;;;4980690;28;20058;-41
2022/06/26 03:38:48;;;;;;;7.53;5.60;;;17.60;99.90;;;;;;4988468;28;20042;-41
2022/06/26 03:41:14;;;;;;;7.18;5.28;;;17.50;99.90;;;;;;4975020;28;20141;-41
2022/06/26 03:43:40;;;;;;;5.40;4.70;;;17.50;99.90;;;;;;5003161;28;20161;-41
2022/06/26 03:46:06;;;;;;;7.75;4.75;;;17.50;99.90;;;;;;4988423;28;20144;-41
2022/06/26 03:48:32;;;;;;;5.45;4.55;;;17.50;99.90;;;;;;4979681;28;20105;-41
2022/06/26 03:50:57;;;;;;;9.63;4.35;;;17.50;99.90;;;;;;4990403;28;20053;-41
2022/06/26 03:53:24;;;;;;;7.03;4.53;;;17.40;99.90;;;;;;4990601;28;20141;-41
2022/06/26 03:55:50;;;;;;;7.97;4.22;;;17.40;99.90;;;;;;4991357;28;20129;-41
2022/06/26 03:58:16;;;;;;;5.55;4.22;;;17.40;99.90;;;;;;4974992;28;20050;-41
2022/06/26 04:00:42;;;;;;;6.55;3.83;;;17.40;99.90;;;;;;4991152;28;20053;-41
2022/06/26 04:03:08;;;;;;;7.32;4.20;;;17.30;99.90;;;;;;4980854;28;20137;-41
2022/06/26 04:05:35;;;;;;;7.35;4.28;;;17.30;99.90;;;;;;5010171;28;20068;-41
2022/06/26 04:08:01;;;;;;;5.85;3.67;;;17.40;99.90;;;;;;4986845;28;20077;-41
2022/06/26 04:10:27;;;;;;;6.28;3.70;;;17.40;99.90;;;;;;4989487;28;20121;-41
2022/06/26 04:12:53;;;;;;;5.97;3.90;;;17.30;99.90;;;;;;4990277;28;20052;-41
2022/06/26 04:15:19;;;;;;;6.70;3.90;;;17.30;99.90;;;;;;5001741;28;20050;-41
2022/06/26 04:17:45;;;;;;;5.55;3.70;;;17.30;99.90;;;;;;4973320;28;20061;-41
2022/06/26 04:20:12;;;;;;;5.20;3.10;;;17.30;99.90;;;;;;4991118;28;20053;-41
2022/06/26 04:22:38;;;;;;;5.57;3.83;;;17.30;99.90;;;;;;4990119;28;20065;-41
2022/06/26 04:25:05;;;;;;;6.80;3.65;;;17.30;99.90;;;;;;4990913;28;20057;-41
2022/06/26 04:27:31;;;;;;;5.90;3.72;;;17.20;99.90;;;;;;4974454;28;20069;-42
2022/06/26 04:29:56;;;;;;;6.93;3.78;;;17.30;99.90;;;;;;4991014;28;20077;-41
2022/06/26 04:32:22;;;;;;;4.65;3.25;;;17.40;99.90;;;;;;4989824;28;20053;-41
2022/06/26 04:34:48;;;;;;;6.43;3.25;;;17.40;99.90;;;;;;4990441;28;20038;-41
2022/06/26 04:37:13;;;;;;;6.13;3.65;;;17.40;99.90;;;;;;4975356;28;20513;-41
2022/06/26 04:39:39;;;;;;;6.38;3.25;;;17.40;99.90;;;;;;4990509;28;20054;-41
2022/06/26 04:42:05;;;;;;;5.43;3.83;;;17.40;99.90;;;;;;4997298;28;20050;-41
2022/06/26 04:44:31;;;;;;;5.97;3.38;;;17.40;99.90;;;;;;5010201;28;20129;-41
2022/06/26 04:46:56;;;;;;;3.92;3.53;;;17.40;99.90;;;;;;4993129;28;20064;-41
2022/06/26 04:49:22;;;;;;;4.05;3.38;;;17.40;99.90;;;;;;4989754;28;20038;-41
2022/06/26 04:51:48;;;;;;;4.88;3.40;;;17.40;99.90;;;;;;4990782;28;20054;-41
2022/06/26 04:54:13;;;;;;;6.20;3.25;;;17.40;99.90;;;;;;4989242;28;20509;-41
2022/06/26 04:56:39;;;;;;;4.95;3.90;;;17.40;99.90;;;;;;4974993;28;20054;-41
2022/06/26 04:59:05;;;;;;;6.57;3.67;;;17.40;99.90;;;;;;4974902;28;20054;-41
2022/06/26 05:01:32;;;;;;;6.63;3.83;;;17.40;99.90;;;;;;4980245;28;20109;-41
2022/06/26 05:03:58;;;;;;;3.63;3.30;;;17.40;99.90;;;;;;4990766;28;20062;-41
2022/06/26 05:06:24;;;;;;;4.55;3.70;;;17.40;99.90;;;;;;4988062;28;20579;-41
2022/06/26 05:08:50;;;;;;;5.60;3.95;;;17.40;99.90;;;;;;4986258;28;20046;-41
2022/06/26 05:11:16;;;;;;;6.28;3.97;;;17.50;99.90;;;;;;4999436;28;20053;-41
2022/06/26 05:13:42;;;;;;;5.50;4.00;;;17.50;99.90;;;;;;5009000;28;20195;-41
2022/06/26 05:16:07;;;;;;;5.85;3.83;;;17.50;99.90;;;;;;4993642;28;20039;-41
2022/06/26 05:18:33;;;;;;;5.45;3.85;;;17.50;99.90;;;;;;4980137;28;20516;-41
2022/06/26 05:20:59;;;;;;;4.60;4.13;;;17.50;99.90;;;;;;4989901;28;20054;-41
2022/06/26 05:23:25;;;;;;;7.05;4.60;;;17.50;99.90;;;;;;4989416;28;20046;-42
2022/06/26 05:25:51;;;;;;;5.95;4.30;;;17.60;99.90;;;;;;4972698;28;20057;-41
2022/06/26 05:28:18;;;;;;;8.48;5.00;;;17.60;99.90;;;;;;4973619;28;20410;-41
2022/06/26 05:30:44;;;;;;;8.30;5.47;;;17.70;99.90;;;;;;4990279;28;20073;-41
2022/06/26 05:33:10;;;;;;;6.75;5.85;;;17.70;99.90;;;;;;4988648;28;20051;-41
2022/06/26 05:35:37;;;;;;;8.48;7.57;;;17.70;99.90;;;;;;4978603;28;20537;-41
2022/06/26 05:38:03;;;;;;;8.95;7.00;;;17.80;99.90;;;;;;4971112;28;20049;-41
2022/06/26 05:40:29;;;;;;;8.40;7.60;;;17.80;99.90;;;;;;4985111;28;20042;-41
2022/06/26 05:42:56;;;;;;;11.55;7.72;;;17.80;99.90;;;;;;4988784;28;20048;-41
2022/06/26 05:45:22;;;;;;;8.73;7.72;;;17.80;99.90;;;;;;4987852;28;20078;-41
2022/06/26 05:47:48;;;;;;;9.55;7.57;;;17.90;99.90;;;;;;4971960;28;20101;-41
2022/06/26 05:50:13;;;;;;;10.60;7.85;;;17.90;99.90;;;;;;4990167;28;20062;-41
2022/06/26 05:52:39;;;;;;;10.35;7.80;;;17.90;99.90;;;;;;4989223;28;20138;-41
2022/06/26 05:55:06;;;;;;;10.90;8.18;;;17.90;99.90;;;;;;4989835;28;20540;-41
2022/06/26 05:57:31;;;;;;;10.77;9.15;;;17.90;99.90;;;;;;4970977;28;20038;-41
2022/06/26 05:59:57;;;;;;;11.05;8.70;;;17.90;99.90;;;;;;4979583;28;20048;-42
2022/06/26 06:02:23;;;;;;;11.13;8.55;;;17.90;99.90;;;;;;4989064;28;20072;-41
2022/06/26 06:04:48;;;;;;;10.48;7.90;;;17.90;99.90;;;;;;4988490;28;20495;-41
2022/06/26 06:07:14;;;;;;;9.77;8.15;;;18.00;99.90;;;;;;4973512;28;20469;-41
2022/06/26 06:09:40;;;;;;;9.82;8.18;;;18.00;99.90;;;;;;4988323;28;20129;-41
2022/06/26 06:12:06;;;;;;;10.65;8.57;;;18.10;99.90;;;;;;4988995;28;20054;-42
2022/06/26 06:14:31;;;;;;;13.18;8.93;;;18.00;99.90;;;;;;4991394;28;20532;-41
2022/06/26 06:16:57;;;;;;;12.57;8.82;;;18.10;99.90;;;;;;4981968;28;20042;-41
2022/06/26 06:19:23;;;;;;;10.82;8.85;;;18.10;99.90;;;;;;4992355;28;20520;-41
2022/06/26 06:21:48;;;;;;;15.18;9.95;;;18.10;99.90;;;;;;4995486;28;20483;-41
2022/06/26 06:24:14;;;;;;;13.18;9.75;;;18.10;99.90;;;;;;5002817;28;20054;-41
2022/06/26 06:26:40;;;;;;;12.13;10.52;;;18.20;99.90;;;;;;4979254;28;20096;-42
2022/06/26 06:29:06;;;;;;;14.75;10.60;;;18.10;99.90;;;;;;4989212;28;20164;-41
2022/06/26 06:31:32;;;;;;;14.43;12.07;;;18.10;99.90;;;;;;4976992;28;20486;-41
2022/06/26 06:33:57;;;;;;;13.80;12.10;;;18.10;99.90;;;;;;4991548;28;20148;-41
2022/06/26 06:36:23;;;;;;;17.42;12.70;;;18.10;99.90;;;;;;4980703;28;20625;-41
2022/06/26 06:38:48;;;;;;;15.30;12.63;;;18.20;99.90;;;;;;4979396;28;20499;-41
2022/06/26 06:41:14;;;;;;;16.10;12.57;;;18.20;99.90;;;;;;4993436;28;20049;-41
2022/06/26 06:43:40;;;;;;;14.98;12.23;;;18.10;99.90;;;;;;5009341;28;20061;-41
2022/06/26 06:46:06;;;;;;;13.85;11.85;;;18.20;99.90;;;;;;4989267;28;20046;-43
2022/06/26 06:48:31;;;;;;;15.60;12.32;;;18.20;99.90;;;;;;4981252;28;20061;-41
2022/06/26 06:50:57;;;;;;;14.45;11.63;;;18.20;99.90;;;;;;4992740;28;20478;-41
2022/06/26 06:53:23;;;;;;;13.52;12.07;;;18.20;99.90;;;;;;4991922;28;20133;-41
2022/06/26 06:55:49;;;;;;;13.98;11.85;;;18.20;99.90;;;;;;4992418;28;20166;-41
2022/06/26 06:58:14;;;;;;;18.35;13.63;;;18.30;99.90;;;;;;4976081;28;20046;-41
2022/06/26 07:00:40;;;;;;;14.40;12.57;;;18.30;99.90;;;;;;4992810;28;20579;-41
2022/06/26 07:03:06;;;;;;;14.63;13.13;;;18.30;99.90;;;;;;4991277;28;20512;-42
2022/06/26 07:05:33;;;;;;;16.33;13.30;;;18.30;99.90;;;;;;4990952;28;20518;-41
2022/06/26 07:08:00;;;;;;;15.65;13.55;;;18.30;99.90;;;;;;4976243;28;20101;-41
2022/06/26 07:10:25;;;;;;;17.00;13.35;;;18.40;99.90;;;;;;4992413;28;20104;-41
2022/06/26 07:12:55;;;;;;;16.15;14.35;;;18.30;99.90;;;;;;4990842;28;20125;-41
2022/06/26 07:15:22;;;;;;;18.92;15.88;;;18.30;99.90;;;;;;4998370;28;20053;-41
2022/06/26 07:17:48;;;;;;;19.50;15.35;;;18.30;99.90;;;;;;4981283;28;20109;-41
2022/06/26 07:20:15;;;;;;;21.30;16.13;;;18.30;99.90;;;;;;5000079;28;20042;-41
2022/06/26 07:22:40;;;;;;;19.92;15.70;;;18.30;99.90;;;;;;4998197;28;20050;-41
2022/06/26 07:25:07;;;;;;;21.90;17.83;;;18.40;99.90;;;;;;4989165;28;20100;-41
2022/06/26 07:27:33;;;;;;;21.42;17.90;;;18.40;99.90;;;;;;4970665;28;20073;-41
2022/06/26 07:29:58;;;;;;;23.35;20.25;;;18.40;99.90;;;;;;4998322;28;20496;-41
2022/06/26 07:32:24;;;;;;;22.65;19.42;;;18.50;99.90;;;;;;4999804;28;20057;-41
2022/06/26 07:34:50;;;;;;;25.40;17.33;;;18.50;99.90;;;;;;4996353;28;20566;-41
2022/06/26 07:37:16;;;;;;;21.15;16.33;;;18.50;99.90;;;;;;4981260;28;20397;-42
2022/06/26 07:39:41;;;;;;;18.65;14.13;;;18.50;99.90;;;;;;5000699;28;20038;-41
2022/06/26 07:42:07;;;;;;;16.63;13.63;;;18.50;99.90;;;;;;4999225;28;20065;-41
2022/06/26 07:44:33;;;;;;;17.75;13.95;;;18.40;99.90;;;;;;4998817;28;20069;-41
2022/06/26 07:46:59;;;;;;;17.55;13.85;;;18.40;99.90;;;;;;4956363;28;20058;-41
2022/06/26 07:49:25;;;;;;;19.67;14.93;;;18.40;99.90;;;;;;4971415;28;20074;-41
2022/06/26 07:51:50;;;;;;;22.00;15.98;;;18.50;99.90;;;;;;4972480;28;20573;-41
2022/06/26 07:54:16;;;;;;;20.98;16.98;;;18.60;99.90;;;;;;4971218;28;20080;-41
2022/06/26 07:56:42;;;;;;;18.73;16.35;;;18.70;99.90;;;;;;4969961;28;20125;-41
2022/06/26 07:59:08;;;;;;;21.13;15.60;;;18.80;99.90;;;;;;4970992;28;20548;-41
2022/06/26 08:01:34;;;;;;;20.25;15.73;;;18.90;99.90;;;;;;4968808;28;20138;-41
2022/06/26 08:04:01;;;;;;;17.80;14.73;;;19.00;99.90;;;;;;4970525;28;20058;-41
2022/06/26 08:06:29;;;;;;;19.77;14.57;;;19.00;99.90;;;;;;4965483;28;20066;-41
2022/06/26 08:08:56;;;;;;;17.05;13.95;;;19.10;99.90;;;;;;4985795;28;20030;-41
2022/06/26 08:11:22;;;;;;;15.80;13.20;;;19.10;99.90;;;;;;4988220;28;20046;-41
2022/06/26 08:13:48;;;;;;;19.52;13.15;;;19.20;99.90;;;;;;4969933;28;20077;-41
2022/06/26 08:16:14;;;;;;;15.35;12.77;;;19.30;99.90;;;;;;4981464;28;20050;-41
2022/06/26 08:18:41;;;;;;;13.85;11.15;;;19.40;99.90;;;;;;4982361;28;20054;-42
2022/06/26 08:23:52;;;;;;;11.68;8.85;;;19.50;99.90;;;;;;4992202;28;20105;-41
2022/06/26 08:26:17;;;;;;;10.35;6.65;;;19.60;99.90;;;;;;4976905;28;20066;-41
2022/06/26 08:28:43;;;;;;;8.13;6.18;;;19.60;99.90;;;;;;4980672;28;20050;-41
2022/06/26 08:31:09;;;;;;;6.30;5.40;;;19.50;99.90;;;;;;4987409;28;20042;-41
2022/06/26 08:33:35;;;;;;;7.22;4.90;;;19.50;99.90;;;;;;4975656;28;20078;-42
2022/06/26 08:36:01;;;;;;;6.93;5.10;;;19.50;99.90;;;;;;4969212;28;20050;-42
2022/06/26 08:38:26;;;;;;;7.20;5.32;;;19.50;99.90;;;;;;4960740;28;20049;-42
2022/06/26 08:40:53;;;;;;;6.00;5.03;;;19.50;99.90;;;;;;4987272;28;20053;-41
2022/06/26 08:43:22;;;;;;;7.00;4.72;;;19.50;99.90;;;;;;4996358;28;20052;-41
2022/06/26 08:45:50;;;;;;;7.70;4.45;;;19.50;99.90;;;;;;4987763;28;20050;-41
2022/06/26 08:48:19;;;;;;;7.03;3.47;;;19.50;99.90;;;;;;4970645;28;20046;-41
2022/06/26 08:50:45;;;;;;;5.22;2.67;;;19.50;99.90;;;;;;5000445;28;20050;-42
2022/06/26 08:53:13;;;;;;;6.32;3.65;;;19.50;99.90;;;;;;4986150;28;20670;-42
2022/06/26 08:55:39;;;;;;;6.30;3.35;;;19.50;99.90;;;;;;4987347;28;20090;-41
2022/06/26 08:58:06;;;;;;;5.75;3.40;;;19.50;99.90;;;;;;4969866;28;20050;-41
2022/06/26 09:00:32;;;;;;;7.80;4.10;;;19.60;99.90;;;;;;4986519;28;20125;-42
2022/06/26 09:02:58;;;;;;;6.10;4.18;;;19.60;99.90;;;;;;4977481;28;20125;-41
2022/06/26 09:05:23;;;;;;;8.00;4.97;;;19.70;99.90;;;;;;4967592;28;20065;-41
2022/06/26 09:07:53;;;;;;;6.30;3.75;;;19.80;99.90;;;;;;4951617;28;20058;-41
2022/06/26 09:10:20;;;;;;;5.53;2.28;;;19.90;99.90;;;;;;4968313;28;20062;-41
2022/06/26 09:12:56;;;;;;;3.78;2.33;;;19.90;99.90;;;;;;4968492;28;20150;-41
2022/06/26 09:15:24;;;;;;;5.47;2.60;;;20.00;99.90;;;;;;4976297;28;20054;-41
2022/06/26 09:18:02;;;;;;;5.13;2.00;;;19.90;99.90;;;;;;4950477;28;20051;-41
2022/06/26 09:20:35;;;;;;;3.33;2.20;;;20.00;99.90;;;;;;4968676;28;20058;-41
2022/06/26 09:23:03;;;;;;;2.58;2.13;;;20.00;99.90;;;;;;4968005;28;20054;-41
2022/06/26 09:25:47;;;;;;;6.22;2.70;;;20.10;99.90;;;;;;4967819;28;20502;-41
2022/06/26 09:28:19;;;;;;;5.40;3.13;;;20.10;99.90;;;;;;4953420;28;20075;-41
2022/06/26 09:30:51;;;;;;;6.85;3.40;;;20.20;99.90;;;;;;4967863;28;20113;-41
2022/06/26 09:33:19;;;;;;;3.38;2.45;;;20.30;99.90;;;;;;4969263;28;20090;-42
2022/06/26 09:35:45;;;;;;;2.17;1.60;;;20.40;99.90;;;;;;4967850;28;20067;-41
2022/06/26 09:38:34;;;;;;;4.88;1.55;;;20.20;99.90;;;;;;4954205;28;20830;-41
2022/06/26 09:41:02;;;;;;;2.45;1.25;;;20.20;99.90;;;;;;4971163;28;20502;-42
2022/06/26 09:43:37;;;;;;;1.98;1.48;;;20.30;99.90;;;;;;4969594;28;20521;-41
2022/06/26 09:46:08;;;;;;;3.20;1.23;;;20.30;99.90;;;;;;4983421;28;20050;-41
2022/06/26 09:48:35;;;;;;;1.73;1.13;;;20.30;99.90;;;;;;4969848;28;20498;-41
2022/06/26 09:51:02;;;;;;;2.15;1.00;;;20.40;99.90;;;;;;4989922;28;20062;-41
2022/06/26 09:53:28;;;;;;;2.30;1.30;;;20.40;99.90;;;;;;4986540;28;20053;-41
2022/06/26 09:55:57;;;;;;;2.13;1.40;;;20.50;99.90;;;;;;4986082;28;20054;-41
2022/06/26 09:58:23;;;;;;;2.10;1.35;;;20.50;99.90;;;;;;4972897;28;20129;-41
2022/06/26 10:06:27;;;;;;;3.65;1.90;;;20.60;99.90;;;;;;4960487;28;20517;-41
2022/06/26 10:09:15;;;;;;;2.95;1.52;;;20.70;99.90;;;;;;4968274;28;20494;-41
2022/06/26 10:11:42;;;;;;;4.82;1.95;;;20.80;99.90;;;;;;4971764;28;20115;-41
2022/06/26 10:14:16;;;;;;;2.25;1.48;;;20.80;99.90;;;;;;4973999;28;20051;-41
2022/06/26 10:17:20;;;;;;;3.70;1.70;;;20.90;99.90;;;;;;4958170;28;20047;-41
2022/06/26 10:19:58;;;;;;;3.95;1.85;;;20.90;99.90;;;;;;4983097;28;20564;-41
2022/06/26 10:22:24;;;;;;;3.75;1.50;;;20.90;99.90;;;;;;4987663;28;20050;-41
2022/06/26 10:24:54;;;;;;;3.38;1.75;;;21.10;99.90;;;;;;4990416;28;20073;-41
2022/06/26 10:27:29;;;;;;;3.85;1.65;;;21.10;99.90;;;;;;4974292;28;20524;-41
2022/06/26 10:30:15;;;;;;;2.15;1.45;;;21.10;99.90;;;;;;4985756;28;20053;-41
2022/06/26 10:32:43;;;;;;;2.85;1.40;;;21.00;99.90;;;;;;4989167;28;20058;-41
2022/06/26 10:35:09;;;;;;;2.30;1.30;;;21.10;99.90;;;;;;4986127;28;20490;-41
2022/06/26 10:37:47;;;;;;;3.83;1.70;;;21.00;99.90;;;;;;4957346;28;20061;-41
2022/06/26 10:42:52;;;;;;;3.00;1.48;;;21.00;99.90;;;;;;4970071;28;20050;-41
2022/06/26 10:43:02;;;;;;;1.83;0.82;;;21.00;99.90;;;;;;4974447;28;20410;-41
2022/06/26 10:45:35;;;;;;;3.55;1.30;;;21.10;99.90;;;;;;4971112;28;20402;-42
2022/06/26 10:48:23;;;;;;;2.45;1.20;;;21.20;99.90;;;;;;4970539;28;20409;-41
2022/06/26 10:51:01;;;;;;;3.13;1.23;;;21.20;99.90;;;;;;4989621;28;20049;-42
2022/06/26 10:53:38;;;;;;;1.83;1.40;;;21.20;99.90;;;;;;4996460;28;20552;-41
2022/06/26 10:56:06;;;;;;;3.50;1.70;;;21.30;99.90;;;;;;4986429;28;20384;-42
2022/06/26 10:58:37;;;;;;;4.22;1.65;;;21.30;99.90;;;;;;4977636;28;20045;-42
2022/06/26 11:01:07;;;;;;;2.65;1.70;;;21.40;99.90;;;;;;4984171;28;20046;-42
2022/06/26 11:03:34;;;;;;;3.97;1.70;;;21.40;99.90;;;;;;4982514;28;20272;-42
2022/06/26 11:06:05;;;;;;;5.05;1.67;;;21.50;99.90;;;;;;4971454;28;20968;-42
2022/06/26 11:08:32;;;;;;;2.30;1.63;;;21.60;99.90;;;;;;4990280;28;20121;-41
2022/06/26 11:11:14;;;;;;;2.55;1.77;;;21.70;99.90;;;;;;4989109;28;20517;-41
2022/06/26 11:13:52;;;;;;;4.40;1.73;;;21.80;99.90;;;;;;4987899;28;20046;-41
2022/06/26 11:16:44;;;;;;;2.83;1.48;;;21.80;99.90;;;;;;4980323;28;20038;-41
2022/06/26 11:19:29;;;;;;;2.85;1.83;;;21.80;99.90;;;;;;4991556;28;20049;-41
2022/06/26 11:22:09;;;;;;;3.58;1.75;;;21.80;99.90;;;;;;4992674;28;20046;-42
2022/06/26 11:24:46;;;;;;;2.60;1.58;;;21.90;99.90;;;;;;4988813;28;20070;-41
2022/06/26 11:27:13;;;;;;;4.25;2.17;;;21.90;99.90;;;;;;4976164;28;20061;-41
2022/06/26 11:29:39;;;;;;;4.40;1.80;;;21.90;99.90;;;;;;4989685;28;20050;-41
2022/06/26 11:32:06;;;;;;;3.80;2.13;;;22.00;99.90;;;;;;4990583;28;20050;-41
2022/06/26 11:34:32;;;;;;;4.28;1.90;;;21.90;99.90;;;;;;4992751;28;20445;-42
2022/06/26 11:36:59;;;;;;;3.63;1.38;;;22.00;99.90;;;;;;4974569;28;20049;-41
2022/06/26 11:39:39;;;;;;;3.13;1.83;;;22.00;99.90;;;;;;4994371;28;20048;-41
2022/06/26 11:42:18;;;;;;;3.65;1.50;;;22.10;99.90;;;;;;4989118;28;20050;-41
2022/06/26 11:44:48;;;;;;;4.50;1.95;;;22.20;99.90;;;;;;4987486;28;20054;-41
2022/06/26 11:47:14;;;;;;;1.48;1.10;;;22.20;99.90;;;;;;4971731;28;20046;-42
2022/06/26 11:49:40;;;;;;;2.63;1.88;;;22.30;99.90;;;;;;4991335;28;20482;-41
2022/06/26 11:52:07;;;;;;;1.75;1.20;;;22.30;99.90;;;;;;4988413;28;20564;-41
2022/06/26 11:54:33;;;;;;;2.92;1.38;;;22.40;99.90;;;;;;4991208;28;20101;-41
2022/06/26 11:57:11;;;;;;;3.72;1.58;;;22.40;99.90;;;;;;4975928;28;20046;-42
2022/06/26 11:59:43;;;;;;;2.17;1.50;;;22.40;99.90;;;;;;4988738;28;20402;-42
2022/06/26 12:02:23;;;;;;;4.45;1.88;;;22.40;99.90;;;;;;4995873;28;20054;-41
2022/06/26 12:05:00;;;;;;;2.22;1.65;;;22.40;99.90;;;;;;4995089;28;20093;-41
2022/06/26 12:07:27;;;;;;;2.95;1.60;;;22.40;99.90;;;;;;4978182;28;20548;-42
2022/06/26 12:09:53;;;;;;;3.70;1.70;;;22.50;99.90;;;;;;4980364;28;20104;-41
2022/06/26 12:12:19;;;;;;;4.88;1.85;;;22.50;99.90;;;;;;4995238;28;20050;-42
2022/06/26 12:14:53;;;;;;;4.25;1.58;;;22.60;99.90;;;;;;4997723;28;20842;-42
2022/06/26 12:17:24;;;;;;;2.85;1.80;;;22.60;99.90;;;;;;4982540;28;20054;-42
2022/06/26 12:19:50;;;;;;;2.63;1.70;;;22.70;99.90;;;;;;4997857;28;20084;-42
2022/06/26 12:22:36;;;;;;;2.78;1.48;;;22.80;99.90;;;;;;4999753;28;20057;-41
2022/06/26 12:25:03;;;;;;;5.25;1.55;;;22.80;99.90;;;;;;4999647;28;20074;-41
2022/06/26 12:27:35;;;;;;;2.28;1.50;;;22.80;99.90;;;;;;4974549;28;20046;-42
2022/06/26 12:30:00;;;;;;;3.95;1.33;;;22.90;99.90;;;;;;4991023;28;20141;-42
2022/06/26 12:32:26;;;;;;;3.10;0.98;;;22.90;99.90;;;;;;4990002;28;20128;-41
2022/06/26 12:34:52;;;;;;;3.85;1.20;;;22.90;99.90;;;;;;4980364;28;20488;-42
2022/06/26 12:37:17;;;;;;;2.47;0.90;;;22.90;99.90;;;;;;4994696;28;20074;-42
2022/06/26 12:39:43;;;;;;;4.40;0.82;;;22.90;99.90;;;;;;5008108;28;20052;-42
2022/06/26 12:42:09;;;;;;;1.70;0.88;;;22.90;99.90;;;;;;4998339;28;20132;-42
2022/06/26 12:44:35;;;;;;;3.08;1.10;;;22.90;99.90;;;;;;5010292;28;20184;-42
2022/06/26 12:47:00;;;;;;;3.45;1.13;;;22.90;99.90;;;;;;4986317;28;20050;-42
2022/06/26 12:49:26;;;;;;;2.35;0.93;;;22.90;99.90;;;;;;4989374;28;20414;-42
2022/06/26 12:51:52;;;;;;;2.30;0.75;;;22.90;99.90;;;;;;4988617;28;20698;-41
2022/06/26 12:54:18;;;;;;;2.97;1.33;;;22.90;99.90;;;;;;5004625;28;20049;-42